createdAt,value
2018-04-18T00:01:20.241Z,18.60
2018-04-18T00:03:23.803Z,18.93
2018-04-18T00:05:27.359Z,19.00
2018-04-18T00:07:31.758Z,15.10
2018-04-18T00:09:35.320Z,18.40
2018-04-18T00:11:38.899Z,19.23
2018-04-18T00:13:42.495Z,15.77
2018-04-18T00:15:46.050Z,18.77
2018-04-18T00:17:50.383Z,17.30
2018-04-18T00:19:54.746Z,18.20
2018-04-18T00:21:58.309Z,25.37
2018-04-18T00:24:01.901Z,19.33
2018-04-18T00:26:05.451Z,25.97
2018-04-18T00:28:09.821Z,15.47
2018-04-18T00:30:13.422Z,12.30
2018-04-18T00:32:17.022Z,19.17
2018-04-18T00:34:20.591Z,16.37
2018-04-18T00:36:24.230Z,15.00
2018-04-18T00:38:27.827Z,22.13
2018-04-18T00:40:31.437Z,20.43
2018-04-18T00:42:34.993Z,21.47
2018-04-18T00:44:38.618Z,18.63
2018-04-18T00:46:42.223Z,22.60
2018-04-18T00:48:45.867Z,18.30
2018-04-18T00:50:49.457Z,15.33
2018-04-18T00:52:53.744Z,16.80
2018-04-18T00:54:57.308Z,16.20
2018-04-18T00:57:00.910Z,12.03
2018-04-18T00:59:04.437Z,15.90
2018-04-18T01:01:08.071Z,15.43
2018-04-18T01:03:13.108Z,13.57
2018-04-18T01:05:16.857Z,17.27
2018-04-18T01:07:21.192Z,11.33
2018-04-18T01:09:25.625Z,16.33
2018-04-18T01:11:29.214Z,16.03
2018-04-18T01:13:32.845Z,20.17
2018-04-18T01:15:36.363Z,15.17
2018-04-18T01:17:39.972Z,16.33
2018-04-18T01:19:43.605Z,17.27
2018-04-18T01:21:47.885Z,16.03
2018-04-18T01:23:51.546Z,17.13
2018-04-18T01:25:55.116Z,16.40
2018-04-18T01:27:58.680Z,11.90
2018-04-18T01:30:02.383Z,12.90
2018-04-18T01:32:06.719Z,19.93
2018-04-18T01:34:11.070Z,14.90
2018-04-18T01:36:14.667Z,15.80
2018-04-18T01:38:18.210Z,15.83
2018-04-18T01:40:22.541Z,16.93
2018-04-18T01:42:26.927Z,18.47
2018-04-18T01:44:31.303Z,14.93
2018-04-18T01:46:34.913Z,18.10
2018-04-18T01:48:38.703Z,20.67
2018-04-18T01:50:42.279Z,19.30
2018-04-18T01:52:45.864Z,15.83
2018-04-18T01:54:49.535Z,22.73
2018-04-18T01:56:53.086Z,23.80
2018-04-18T01:58:56.676Z,15.67
2018-04-18T02:01:00.286Z,21.43
2018-04-18T02:03:03.837Z,20.67
2018-04-18T02:05:08.191Z,20.33
2018-04-18T02:07:11.735Z,12.70
2018-04-18T02:09:16.124Z,18.13
2018-04-18T02:11:19.711Z,17.00
2018-04-18T02:13:23.325Z,15.93
2018-04-18T02:15:27.105Z,19.47
2018-04-18T02:17:30.788Z,22.07
2018-04-18T02:19:34.375Z,21.67
2018-04-18T02:21:37.949Z,16.13
2018-04-18T02:23:42.303Z,13.53
2018-04-18T02:25:45.874Z,19.07
2018-04-18T02:27:49.557Z,23.83
2018-04-18T02:29:53.880Z,17.47
2018-04-18T02:31:58.384Z,17.93
2018-04-18T02:34:02.823Z,20.33
2018-04-18T02:36:06.463Z,18.00
2018-04-18T02:38:10.000Z,14.67
2018-04-18T02:40:13.695Z,16.87
2018-04-18T02:42:18.103Z,14.40
2018-04-18T02:44:21.671Z,15.77
2018-04-18T02:46:25.306Z,18.53
2018-04-18T02:48:30.047Z,17.00
2018-04-18T02:50:34.053Z,20.97
2018-04-18T02:52:37.746Z,15.23
2018-04-18T02:54:42.072Z,18.87
2018-04-18T02:56:45.688Z,19.57
2018-04-18T02:58:49.266Z,12.27
2018-04-18T03:00:52.856Z,14.77
2018-04-18T03:02:56.448Z,14.27
2018-04-18T03:05:00.016Z,13.97
2018-04-18T03:07:03.630Z,15.57
2018-04-18T03:09:07.219Z,14.37
2018-04-18T03:11:11.589Z,17.67
2018-04-18T03:13:15.195Z,14.37
2018-04-18T03:15:18.753Z,13.10
2018-04-18T03:17:22.426Z,14.27
2018-04-18T03:19:26.707Z,17.73
2018-04-18T03:21:30.302Z,15.60
2018-04-18T03:23:33.968Z,16.27
2018-04-18T03:25:37.570Z,14.73
2018-04-18T03:27:41.177Z,12.90
2018-04-18T03:29:44.822Z,18.67
2018-04-18T03:31:48.423Z,14.47
2018-04-18T03:33:52.757Z,20.73
2018-04-18T03:35:56.367Z,22.30
2018-04-18T03:37:59.964Z,21.07
2018-04-18T03:40:03.589Z,20.27
2018-04-18T03:42:07.213Z,15.77
2018-04-18T03:44:11.629Z,23.07
2018-04-18T03:46:15.168Z,18.90
2018-04-18T03:48:18.874Z,24.33
2018-04-18T03:50:22.462Z,17.90
2018-04-18T03:52:26.008Z,20.30
2018-04-18T03:54:30.027Z,19.60
2018-04-18T03:56:34.575Z,16.00
2018-04-18T03:58:38.177Z,37.57
2018-04-18T04:00:41.826Z,33.93
2018-04-18T04:02:46.206Z,20.60
2018-04-18T04:04:49.785Z,26.50
2018-04-18T04:06:53.389Z,30.80
2018-04-18T04:08:56.992Z,20.10
2018-04-18T04:11:00.577Z,25.23
2018-04-18T04:13:04.303Z,20.53
2018-04-18T04:15:07.871Z,19.70
2018-04-18T04:17:23.281Z,15.30
2018-04-18T04:19:42.335Z,18.07
2018-04-18T04:21:58.077Z,15.50
2018-04-18T04:24:13.415Z,18.03
2018-04-18T04:26:16.966Z,15.17
2018-04-18T04:28:20.534Z,12.67
2018-04-18T04:30:24.876Z,18.50
2018-04-18T04:32:28.420Z,11.23
2018-04-18T04:34:32.085Z,11.23
2018-04-18T04:36:35.664Z,12.07
2018-04-18T04:38:39.246Z,14.07
2018-04-18T04:40:42.904Z,17.20
2018-04-18T04:42:46.436Z,18.30
2018-04-18T04:44:50.010Z,17.07
2018-04-18T04:46:53.962Z,18.10
2018-04-18T04:48:57.517Z,21.10
2018-04-18T04:51:01.874Z,20.37
2018-04-18T04:53:05.818Z,17.83
2018-04-18T04:55:10.029Z,20.80
2018-04-18T04:57:13.627Z,18.50
2018-04-18T04:59:18.161Z,20.33
2018-04-18T05:01:21.912Z,16.30
2018-04-18T05:03:27.040Z,16.80
2018-04-18T05:05:30.643Z,16.00
2018-04-18T05:07:34.425Z,22.27
2018-04-18T05:09:38.442Z,17.87
2018-04-18T05:11:42.625Z,25.53
2018-04-18T05:13:46.825Z,19.73
2018-04-18T05:15:51.566Z,24.50
2018-04-18T05:17:56.028Z,18.60
2018-04-18T05:19:59.690Z,17.43
2018-04-18T05:22:03.285Z,24.23
2018-04-18T05:24:07.310Z,14.73
2018-04-18T05:26:11.193Z,15.97
2018-04-18T05:28:15.008Z,25.07
2018-04-18T05:30:18.927Z,24.70
2018-04-18T05:32:23.053Z,23.23
2018-04-18T05:34:27.441Z,21.17
2018-04-18T05:36:31.582Z,17.27
2018-04-18T05:38:35.554Z,12.63
2018-04-18T05:40:39.236Z,14.13
2018-04-18T05:42:43.625Z,21.60
2018-04-18T05:44:47.276Z,15.07
2018-04-18T05:46:51.160Z,17.93
2018-04-18T05:48:55.074Z,15.43
2018-04-18T05:50:59.059Z,19.87
2018-04-18T05:53:02.626Z,20.80
2018-04-18T05:55:07.203Z,21.33
2018-04-18T05:57:11.568Z,22.43
2018-04-18T05:59:15.439Z,15.87
2018-04-18T06:01:19.200Z,17.33
2018-04-18T06:03:23.306Z,16.77
2018-04-18T06:05:26.959Z,16.87
2018-04-18T06:09:41.342Z,17.23
2018-04-18T06:11:45.427Z,13.90
2018-04-18T06:13:49.724Z,15.53
2018-04-18T06:15:53.668Z,13.70
2018-04-18T06:17:58.435Z,16.00
2018-04-18T06:20:03.004Z,15.00
2018-04-18T06:22:07.227Z,20.13
2018-04-18T06:24:11.054Z,11.73
2018-04-18T06:26:14.650Z,15.83
2018-04-18T06:28:18.618Z,16.47
2018-04-18T06:30:23.420Z,21.43
2018-04-18T06:32:27.051Z,14.87
2018-04-18T06:34:31.800Z,16.43
2018-04-18T06:36:35.655Z,21.90
2018-04-18T06:38:39.253Z,17.43
2018-04-18T06:40:43.718Z,15.47
2018-04-18T06:42:47.572Z,16.07
2018-04-18T06:44:51.411Z,16.07
2018-04-18T06:46:55.026Z,17.00
2018-04-18T06:48:58.987Z,17.77
2018-04-18T06:51:02.907Z,21.30
2018-04-18T06:53:07.494Z,20.73
2018-04-18T06:55:12.477Z,18.97
2018-04-18T06:57:16.078Z,24.93
2018-04-18T06:59:20.050Z,22.37
2018-04-18T07:01:24.932Z,22.43
2018-04-18T07:03:28.613Z,18.20
2018-04-18T07:05:32.188Z,19.27
2018-04-18T07:07:36.594Z,26.03
2018-04-18T07:09:40.781Z,19.33
2018-04-18T07:11:44.876Z,29.97
2018-04-18T07:13:49.029Z,23.60
2018-04-18T07:15:53.255Z,29.57
2018-04-18T07:17:57.110Z,28.00
2018-04-18T07:20:01.209Z,21.33
2018-04-18T07:22:04.785Z,30.17
2018-04-18T07:24:08.491Z,33.50
2018-04-18T07:26:12.606Z,25.23
2018-04-18T07:28:16.355Z,28.73
2018-04-18T07:30:20.804Z,25.57
2018-04-18T07:32:25.240Z,26.40
2018-04-18T07:34:29.287Z,23.03
2018-04-18T07:36:33.847Z,26.30
2018-04-18T07:38:37.995Z,28.93
2018-04-18T07:40:42.684Z,21.10
2018-04-18T07:42:46.918Z,22.77
2018-04-18T07:44:50.637Z,22.67
2018-04-18T07:46:54.333Z,27.70
2018-04-18T07:48:59.261Z,21.43
2018-04-18T07:51:03.640Z,25.43
2018-04-18T07:53:07.335Z,28.50
2018-04-18T07:55:12.346Z,26.63
2018-04-18T07:57:16.532Z,28.10
2018-04-18T07:59:20.792Z,27.60
2018-04-18T08:01:25.020Z,26.57
2018-04-18T08:03:29.076Z,20.23
2018-04-18T08:05:34.185Z,26.93
2018-04-18T08:07:38.685Z,19.20
2018-04-18T08:09:42.470Z,25.90
2018-04-18T08:11:46.374Z,22.73
2018-04-18T08:13:50.057Z,18.57
2018-04-18T08:15:54.616Z,29.77
2018-04-18T08:17:58.540Z,30.83
2018-04-18T08:20:02.375Z,21.17
2018-04-18T08:22:06.605Z,21.70
2018-04-18T08:24:10.681Z,21.60
2018-04-18T08:26:14.400Z,20.50
2018-04-18T08:28:18.796Z,18.57
2018-04-18T08:30:22.701Z,26.60
2018-04-18T08:32:27.274Z,21.03
2018-04-18T08:34:31.576Z,25.23
2018-04-18T08:36:36.441Z,18.50
2018-04-18T08:38:40.058Z,18.10
2018-04-18T08:40:44.283Z,17.77
2018-04-18T08:42:48.177Z,14.00
2018-04-18T08:44:52.388Z,15.57
2018-04-18T08:46:56.602Z,14.50
2018-04-18T08:49:00.695Z,12.87
2018-04-18T08:51:04.875Z,14.63
2018-04-18T08:53:08.662Z,19.07
2018-04-18T08:55:12.319Z,18.00
2018-04-18T08:57:16.008Z,14.07
2018-04-18T08:59:19.628Z,11.77
2018-04-18T09:01:23.272Z,15.50
2018-04-18T09:03:27.625Z,20.83
2018-04-18T09:05:31.340Z,12.97
2018-04-18T09:07:35.817Z,17.93
2018-04-18T09:09:40.248Z,16.40
2018-04-18T09:11:44.902Z,13.77
2018-04-18T09:13:48.797Z,18.57
2018-04-18T09:15:52.620Z,25.57
2018-04-18T09:17:56.198Z,23.00
2018-04-18T09:19:59.763Z,13.93
2018-04-18T09:22:04.048Z,16.77
2018-04-18T09:24:07.627Z,22.87
2018-04-18T09:26:11.235Z,25.43
2018-04-18T09:28:14.817Z,26.40
2018-04-18T09:30:18.393Z,19.53
2018-04-18T09:32:21.940Z,22.53
2018-04-18T09:34:26.820Z,23.53
2018-04-18T09:36:30.428Z,21.13
2018-04-18T09:38:34.026Z,24.97
2018-04-18T09:40:37.606Z,20.00
2018-04-18T09:42:41.203Z,14.00
2018-04-18T09:44:44.843Z,16.43
2018-04-18T09:46:48.428Z,20.47
2018-04-18T09:48:52.760Z,18.67
2018-04-18T09:50:56.380Z,22.07
2018-04-18T09:52:59.950Z,20.17
2018-04-18T09:55:04.313Z,17.23
2018-04-18T09:57:07.892Z,12.60
2018-04-18T09:59:11.520Z,11.53
2018-04-18T10:01:19.853Z,20.07
2018-04-18T10:03:23.447Z,15.57
2018-04-18T10:05:27.011Z,14.60
2018-04-18T10:07:30.602Z,19.40
2018-04-18T10:09:34.165Z,14.77
2018-04-18T10:11:38.490Z,16.10
2018-04-18T10:13:42.859Z,16.10
2018-04-18T10:15:46.414Z,8.60
2018-04-18T10:17:49.968Z,13.27
2018-04-18T10:19:53.642Z,10.10
2018-04-18T10:21:57.235Z,14.87
2018-04-18T10:24:01.033Z,10.97
2018-04-18T10:26:05.521Z,11.80
2018-04-18T10:28:09.120Z,17.97
2018-04-18T10:30:12.832Z,12.83
2018-04-18T10:32:16.395Z,9.93
2018-04-18T10:34:20.794Z,12.97
2018-04-18T10:36:24.448Z,11.60
2018-04-18T10:38:28.026Z,12.47
2018-04-18T10:40:31.651Z,8.20
2018-04-18T10:42:35.235Z,9.10
2018-04-18T10:44:38.836Z,10.33
2018-04-18T10:46:42.506Z,10.50
2018-04-18T10:48:46.192Z,12.03
2018-04-18T10:50:50.467Z,9.47
2018-04-18T10:52:54.061Z,12.87
2018-04-18T10:54:57.709Z,10.53
2018-04-18T10:57:01.245Z,12.23
2018-04-18T10:59:04.870Z,10.20
2018-04-18T11:01:08.422Z,6.57
2018-04-18T11:03:12.028Z,13.17
2018-04-18T11:05:15.572Z,12.63
2018-04-18T11:07:19.917Z,7.03
2018-04-18T11:09:23.502Z,12.13
2018-04-18T11:11:27.040Z,14.40
2018-04-18T11:13:31.804Z,9.83
2018-04-18T11:15:35.588Z,17.13
2018-04-18T11:17:39.902Z,11.60
2018-04-18T11:19:43.523Z,9.73
2018-04-18T11:21:47.862Z,15.17
2018-04-18T11:23:51.463Z,17.40
2018-04-18T11:25:55.013Z,17.83
2018-04-18T11:27:58.623Z,13.47
2018-04-18T11:30:02.251Z,10.20
2018-04-18T11:32:05.779Z,7.93
2018-04-18T11:34:09.358Z,13.40
2018-04-18T11:36:12.935Z,9.53
2018-04-18T11:38:16.495Z,16.87
2018-04-18T11:40:20.848Z,16.33
2018-04-18T11:42:24.451Z,19.10
2018-04-18T11:44:27.996Z,13.47
2018-04-18T11:46:31.737Z,13.70
2018-04-18T11:48:35.296Z,11.20
2018-04-18T11:50:39.591Z,11.63
2018-04-18T11:52:43.171Z,8.93
2018-04-18T11:54:46.723Z,8.97
2018-04-18T11:56:50.294Z,8.80
2018-04-18T11:58:53.880Z,11.77
2018-04-18T12:00:58.253Z,8.63
2018-04-18T12:03:02.232Z,11.87
2018-04-18T12:05:05.835Z,14.20
2018-04-18T12:07:09.355Z,16.10
2018-04-18T12:09:12.907Z,15.40
2018-04-18T12:11:17.218Z,14.87
2018-04-18T12:13:21.526Z,7.40
2018-04-18T12:15:25.279Z,18.83
2018-04-18T12:17:28.816Z,12.67
2018-04-18T12:19:32.417Z,10.93
2018-04-18T12:21:37.339Z,15.40
2018-04-18T12:23:40.877Z,11.70
2018-04-18T12:25:44.472Z,16.97
2018-04-18T12:27:48.058Z,13.07
2018-04-18T12:29:51.670Z,12.53
2018-04-18T12:31:55.288Z,10.37
2018-04-18T12:33:58.836Z,14.00
2018-04-18T12:36:03.152Z,14.30
2018-04-18T12:38:06.800Z,10.80
2018-04-18T12:40:10.385Z,14.47
2018-04-18T12:42:13.948Z,12.33
2018-04-18T12:44:18.342Z,10.40
2018-04-18T12:46:21.947Z,14.23
2018-04-18T12:48:25.949Z,10.90
2018-04-18T12:50:30.339Z,16.67
2018-04-18T12:52:33.867Z,10.93
2018-04-18T12:54:37.442Z,7.47
2018-04-18T12:56:40.986Z,9.23
2018-04-18T12:58:44.732Z,9.47
2018-04-18T13:00:48.298Z,11.73
2018-04-18T13:02:51.865Z,9.93
2018-04-18T13:04:56.239Z,12.97
2018-04-18T13:06:59.792Z,14.13
2018-04-18T13:09:03.448Z,8.37
2018-04-18T13:11:07.133Z,13.20
2018-04-18T13:13:10.697Z,14.13
2018-04-18T13:15:14.377Z,12.40
2018-04-18T13:17:18.640Z,15.23
2018-04-18T13:19:22.388Z,17.80
2018-04-18T13:21:26.010Z,15.03
2018-04-18T13:23:29.665Z,13.77
2018-04-18T13:25:33.224Z,17.93
2018-04-18T13:27:37.611Z,8.23
2018-04-18T13:29:41.187Z,9.60
2018-04-18T13:31:44.780Z,17.33
2018-04-18T13:33:49.087Z,24.70
2018-04-18T13:35:53.463Z,18.30
2018-04-18T13:37:57.056Z,17.00
2018-04-18T13:40:00.688Z,14.53
2018-04-18T13:42:05.023Z,12.27
2018-04-18T13:44:08.595Z,12.17
2018-04-18T13:46:12.958Z,13.20
2018-04-18T13:48:16.544Z,10.57
2018-04-18T13:50:20.108Z,19.87
2018-04-18T13:52:24.499Z,7.47
2018-04-18T13:54:28.067Z,11.17
2018-04-18T13:56:31.752Z,15.17
2018-04-18T13:58:35.344Z,12.13
2018-04-18T14:00:38.920Z,15.13
2018-04-18T14:02:43.388Z,12.47
2018-04-18T14:04:47.811Z,19.47
2018-04-18T14:06:51.495Z,13.10
2018-04-18T14:08:55.027Z,16.33
2018-04-18T14:10:59.476Z,9.13
2018-04-18T14:13:03.013Z,12.97
2018-04-18T14:15:06.588Z,15.63
2018-04-18T14:17:10.593Z,12.90
2018-04-18T14:19:14.196Z,10.90
2018-04-18T14:21:17.752Z,6.83
2018-04-18T14:23:22.140Z,12.00
2018-04-18T14:25:25.750Z,13.13
2018-04-18T14:27:29.359Z,17.43
2018-04-18T14:29:33.689Z,16.67
2018-04-18T14:31:37.289Z,10.67
2018-04-18T14:33:40.894Z,18.00
2018-04-18T14:35:44.490Z,13.43
2018-04-18T14:37:48.148Z,13.57
2018-04-18T14:39:52.506Z,16.57
2018-04-18T14:41:56.151Z,11.17
2018-04-18T14:43:59.724Z,15.97
2018-04-18T14:46:03.288Z,15.80
2018-04-18T14:48:07.360Z,18.50
2018-04-18T14:50:11.740Z,11.87
2018-04-18T14:52:15.292Z,13.87
2018-04-18T14:54:19.785Z,13.70
2018-04-18T14:56:23.335Z,14.43
2018-04-18T14:58:26.916Z,12.73
2018-04-18T15:00:30.475Z,16.43
2018-04-18T15:02:34.876Z,13.80
2018-04-18T15:04:38.452Z,11.57
2018-04-18T15:06:42.076Z,13.67
2018-04-18T15:08:45.628Z,9.60
2018-04-18T15:10:49.658Z,10.20
2018-04-18T15:12:53.166Z,9.70
2018-04-18T15:14:56.677Z,8.47
2018-04-18T15:17:01.030Z,13.87
2018-04-18T15:19:05.338Z,10.43
2018-04-18T15:21:09.232Z,10.40
2018-04-18T15:23:12.755Z,12.30
2018-04-18T15:25:16.282Z,14.70
2018-04-18T15:27:19.882Z,17.13
2018-04-18T15:29:23.432Z,14.87
2018-04-18T15:31:27.034Z,16.73
2018-04-18T15:33:30.746Z,15.60
2018-04-18T15:35:34.343Z,13.00
2018-04-18T15:37:38.133Z,12.17
2018-04-18T15:39:42.509Z,10.43
2018-04-18T15:41:46.457Z,8.20
2018-04-18T15:43:50.842Z,16.33
2018-04-18T15:45:55.294Z,18.30
2018-04-18T15:47:58.811Z,15.33
2018-04-18T15:50:02.449Z,14.20
2018-04-18T15:52:06.062Z,11.07
2018-04-18T15:54:09.616Z,12.17
2018-04-18T15:56:13.205Z,13.23
2018-04-18T15:58:16.718Z,9.97
2018-04-18T16:00:20.303Z,14.30
2018-04-18T16:02:23.901Z,12.83
2018-04-18T16:04:27.479Z,13.97
2018-04-18T16:06:31.849Z,14.13
2018-04-18T16:08:35.491Z,15.93
2018-04-18T16:10:39.003Z,19.23
2018-04-18T16:12:42.556Z,11.80
2018-04-18T16:14:46.199Z,24.13
2018-04-18T16:16:49.750Z,13.23
2018-04-18T16:18:53.359Z,15.93
2018-04-18T16:20:57.418Z,13.47
2018-04-18T16:23:01.796Z,13.77
2018-04-18T16:25:05.419Z,12.67
2018-04-18T16:27:09.810Z,14.60
2018-04-18T16:29:25.120Z,15.23
2018-04-18T16:31:28.740Z,15.27
2018-04-18T16:33:32.814Z,13.63
2018-04-18T16:35:36.369Z,17.20
2018-04-18T16:37:39.932Z,16.33
2018-04-18T16:39:43.509Z,13.70
2018-04-18T16:41:47.936Z,16.77
2018-04-18T16:43:52.293Z,15.13
2018-04-18T16:45:55.979Z,12.17
2018-04-18T16:47:59.516Z,8.27
2018-04-18T16:50:03.055Z,17.93
2018-04-18T16:52:06.653Z,16.50
2018-04-18T16:54:10.175Z,18.17
2018-04-18T16:56:13.756Z,10.10
2018-04-18T16:58:17.388Z,14.03
2018-04-18T17:00:20.995Z,15.47
2018-04-18T17:02:25.299Z,14.47
2018-04-18T17:04:28.904Z,16.07
2018-04-18T17:06:32.474Z,16.13
2018-04-18T17:08:36.020Z,17.00
2018-04-18T17:10:40.549Z,13.93
2018-04-18T17:12:44.119Z,18.00
2018-04-18T17:14:48.527Z,22.83
2018-04-18T17:16:52.115Z,16.27
2018-04-18T17:18:55.669Z,17.53
2018-04-18T17:20:59.630Z,18.33
2018-04-18T17:23:03.123Z,9.63
2018-04-18T17:25:06.703Z,18.97
2018-04-18T17:27:10.390Z,15.70
2018-04-18T17:29:13.915Z,15.60
2018-04-18T17:31:17.538Z,15.03
2018-04-18T17:33:21.171Z,15.17
2018-04-18T17:35:24.798Z,17.67
2018-04-18T17:37:28.429Z,16.97
2018-04-18T17:39:31.976Z,12.87
2018-04-18T17:41:35.571Z,16.73
2018-04-18T17:43:39.509Z,16.77
2018-04-18T17:45:43.846Z,21.50
2018-04-18T17:47:47.402Z,16.50
2018-04-18T17:49:52.574Z,15.23
2018-04-18T17:51:56.165Z,19.23
2018-04-18T17:53:59.759Z,15.03
2018-04-18T17:56:03.344Z,17.40
2018-04-18T17:58:07.666Z,12.80
2018-04-18T18:00:12.033Z,16.27
2018-04-18T18:02:16.421Z,15.30
2018-04-18T18:04:20.038Z,14.67
2018-04-18T18:06:23.717Z,18.93
2018-04-18T18:08:27.328Z,13.10
2018-04-18T18:10:30.857Z,17.50
2018-04-18T18:12:34.622Z,16.43
2018-04-18T18:14:38.166Z,17.70
2018-04-18T18:16:42.473Z,17.67
2018-04-18T18:18:47.000Z,16.63
2018-04-18T18:20:50.634Z,18.17
2018-04-18T18:22:54.242Z,20.20
2018-04-18T18:24:57.900Z,23.50
2018-04-18T18:27:02.258Z,19.00
2018-04-18T18:29:05.834Z,16.47
2018-04-18T18:31:09.448Z,19.00
2018-04-18T18:33:13.016Z,18.97
2018-04-18T18:35:16.603Z,20.47
2018-04-18T18:37:20.229Z,21.17
2018-04-18T18:39:23.860Z,19.53
2018-04-18T18:41:27.450Z,23.57
2018-04-18T18:43:31.783Z,17.20
2018-04-18T18:45:35.407Z,21.00
2018-04-18T18:47:39.911Z,21.53
2018-04-18T18:49:43.517Z,21.33
2018-04-18T18:51:47.114Z,21.13
2018-04-18T18:53:51.510Z,18.43
2018-04-18T18:55:55.050Z,21.23
2018-04-18T18:57:58.619Z,21.70
2018-04-18T19:00:03.062Z,19.27
2018-04-18T19:02:06.673Z,13.07
2018-04-18T19:04:10.275Z,18.33
2018-04-18T19:06:13.931Z,22.17
2018-04-18T19:08:18.262Z,23.23
2018-04-18T19:10:21.857Z,17.70
2018-04-18T19:12:25.422Z,17.57
2018-04-18T19:14:28.997Z,21.57
2018-04-18T19:16:32.613Z,18.43
2018-04-18T19:18:36.303Z,18.60
2018-04-18T19:20:39.859Z,17.13
2018-04-18T19:22:43.445Z,15.27
2018-04-18T19:24:47.443Z,14.67
2018-04-18T19:26:51.002Z,19.13
2018-04-18T19:28:54.563Z,25.53
2018-04-18T19:30:58.160Z,18.20
2018-04-18T19:33:02.471Z,21.50
2018-04-18T19:35:06.784Z,18.20
2018-04-18T19:37:10.408Z,18.47
2018-04-18T19:39:14.115Z,18.07
2018-04-18T19:41:17.744Z,20.47
2018-04-18T19:43:22.176Z,19.03
2018-04-18T19:45:25.928Z,18.97
2018-04-18T19:47:29.479Z,20.03
2018-04-18T19:49:33.073Z,21.30
2018-04-18T19:51:37.019Z,23.77
2018-04-18T19:53:40.604Z,18.57
2018-04-18T19:55:44.220Z,18.83
2018-04-18T19:57:48.249Z,16.83
2018-04-18T19:59:52.630Z,21.07
2018-04-18T20:01:56.234Z,21.93
2018-04-18T20:03:59.817Z,23.33
2018-04-18T20:06:03.436Z,21.97
2018-04-18T20:08:07.066Z,19.70
2018-04-18T20:10:10.773Z,21.17
2018-04-18T20:12:14.397Z,19.47
2018-04-18T20:14:17.945Z,16.53
2018-04-18T20:16:22.362Z,17.57
2018-04-18T20:18:25.970Z,20.13
2018-04-18T20:20:29.567Z,21.20
2018-04-18T20:22:33.243Z,19.40
2018-04-18T20:24:37.327Z,23.20
2018-04-18T20:26:40.936Z,18.87
2018-04-18T20:28:44.510Z,19.20
2018-04-18T20:30:48.148Z,18.93
2018-04-18T20:32:52.509Z,15.27
2018-04-18T20:34:56.060Z,19.00
2018-04-18T20:37:00.602Z,26.47
2018-04-18T20:39:04.968Z,21.93
2018-04-18T20:41:08.623Z,27.30
2018-04-18T20:43:12.232Z,20.83
2018-04-18T20:45:15.844Z,19.60
2018-04-18T20:47:19.458Z,22.80
2018-04-18T20:49:23.029Z,22.10
2018-04-18T20:51:27.400Z,20.07
2018-04-18T20:53:31.843Z,36.03
2018-04-18T20:55:35.474Z,24.87
2018-04-18T20:57:39.023Z,22.13
2018-04-18T20:59:42.599Z,14.13
2018-04-18T21:01:46.927Z,16.87
2018-04-18T21:03:50.530Z,23.47
2018-04-18T21:05:54.441Z,17.57
2018-04-18T21:07:58.023Z,17.20
2018-04-18T21:10:01.681Z,15.40
2018-04-18T21:12:05.712Z,23.70
2018-04-18T21:14:10.034Z,20.90
2018-04-18T21:16:13.597Z,18.43
2018-04-18T21:18:17.157Z,20.90
2018-04-18T21:20:25.131Z,22.03
2018-04-18T21:22:28.904Z,19.97
2018-04-18T21:24:32.958Z,20.53
2018-04-18T21:26:40.545Z,24.20
2018-04-18T21:28:44.798Z,16.77
2018-04-18T21:30:51.056Z,15.93
2018-04-18T21:32:57.514Z,16.67
2018-04-18T21:35:01.809Z,17.87
2018-04-18T21:37:05.426Z,19.57
2018-04-18T21:39:08.985Z,20.27
2018-04-18T21:41:12.620Z,17.07
2018-04-18T21:43:16.503Z,19.40
2018-04-18T21:45:20.301Z,22.90
2018-04-18T21:47:24.163Z,20.43
2018-04-18T21:49:27.679Z,16.67
2018-04-18T21:51:31.302Z,17.10
2018-04-18T21:53:35.898Z,20.13
2018-04-18T21:55:40.434Z,19.47
2018-04-18T21:57:44.019Z,17.70
2018-04-18T21:59:48.966Z,19.23
2018-04-18T22:01:52.651Z,23.00
2018-04-18T22:03:56.981Z,19.40
2018-04-18T22:06:00.586Z,19.53
2018-04-18T22:08:06.456Z,17.23
2018-04-18T22:10:10.143Z,16.77
2018-04-18T22:12:13.743Z,17.13
2018-04-18T22:14:17.541Z,20.10
2018-04-18T22:16:21.136Z,21.73
2018-04-18T22:18:24.737Z,19.07
2018-04-18T22:20:28.304Z,14.00
2018-04-18T22:22:31.863Z,16.83
2018-04-18T22:24:36.210Z,20.80
2018-04-18T22:26:39.752Z,17.53
2018-04-18T22:28:43.377Z,11.93
2018-04-18T22:30:46.960Z,13.70
2018-04-18T22:32:50.579Z,16.60
2018-04-18T22:34:54.052Z,19.17
2018-04-18T22:36:57.655Z,21.13
2018-04-18T22:39:01.240Z,19.73
2018-04-18T22:41:05.312Z,19.97
2018-04-18T22:43:08.860Z,17.30
2018-04-18T22:45:12.440Z,20.07
2018-04-18T22:47:16.838Z,17.43
2018-04-18T22:49:20.374Z,18.33
2018-04-18T22:51:24.683Z,22.30
2018-04-18T22:53:29.016Z,15.90
2018-04-18T22:55:32.543Z,20.27
2018-04-18T22:57:36.199Z,16.30
2018-04-18T22:59:40.530Z,18.43
2018-04-18T23:01:44.144Z,23.80
2018-04-18T23:03:47.739Z,17.00
2018-04-18T23:05:51.328Z,16.03
2018-04-18T23:07:54.925Z,12.17
2018-04-18T23:09:58.659Z,13.73
2018-04-18T23:12:02.174Z,18.70
2018-04-18T23:14:06.542Z,18.40
2018-04-18T23:16:10.142Z,19.37
2018-04-18T23:18:13.680Z,18.90
2018-04-18T23:20:17.409Z,19.97
2018-04-18T23:22:32.853Z,15.10
2018-04-18T23:24:37.194Z,13.90
2018-04-18T23:26:41.535Z,12.63
2018-04-18T23:28:45.110Z,18.93
2018-04-18T23:30:48.703Z,21.43
2018-04-18T23:32:52.340Z,20.13
2018-04-18T23:34:55.941Z,21.37
2018-04-18T23:36:59.498Z,23.37
2018-04-18T23:39:03.204Z,21.00
2018-04-18T23:41:06.865Z,25.23
2018-04-18T23:43:11.245Z,21.13
2018-04-18T23:45:14.881Z,20.97
2018-04-18T23:47:19.229Z,19.50
2018-04-18T23:49:22.931Z,18.67
2018-04-18T23:51:26.460Z,18.40
2018-04-18T23:53:30.098Z,19.10
2018-04-18T23:55:34.592Z,20.03
2018-04-18T23:57:38.128Z,15.63
2018-04-18T23:59:41.721Z,17.90
